createdAt,value
2022-08-17T08:29:30.057Z,28.93
2022-08-17T08:31:43.197Z,28.93
2022-08-17T08:34:02.917Z,28.52
2022-08-17T08:37:15.790Z,28.78
2022-08-17T08:39:35.815Z,28.98
2022-08-17T08:41:57.475Z,29.12
2022-08-17T08:44:18.762Z,29.09
2022-08-17T08:46:36.848Z,28.93
2022-08-17T08:49:10.033Z,29.02
2022-08-17T08:51:30.269Z,28.83
2022-08-17T08:53:59.199Z,29.22
2022-08-17T08:56:31.690Z,29.48
2022-08-17T08:58:50.706Z,29.38
2022-08-17T09:00:56.668Z,29.75
2022-08-17T09:03:42.582Z,29.99
2022-08-17T09:06:00.282Z,30.03
2022-08-17T09:08:47.722Z,30.46
2022-08-17T09:10:53.209Z,30.46
2022-08-17T09:13:30.237Z,30.38
2022-08-17T09:15:47.420Z,30.23
2022-08-17T09:18:39.600Z,30.51
2022-08-17T09:20:29.560Z,30.53
2022-08-17T09:22:39.312Z,30.53
2022-08-17T09:24:48.167Z,31.53
2022-08-17T09:27:28.856Z,31.40
2022-08-17T09:29:35.323Z,31.17
2022-08-17T09:31:55.126Z,31.02
2022-08-17T09:34:00.083Z,30.66
2022-08-17T09:36:11.909Z,30.66
2022-08-17T09:38:27.102Z,30.94
2022-08-17T09:40:43.450Z,31.26
2022-08-17T09:42:50.485Z,31.29
2022-08-17T09:45:08.164Z,31.45
2022-08-17T09:47:46.681Z,31.64
2022-08-17T09:49:56.047Z,31.83
2022-08-17T09:52:03.438Z,31.91
2022-08-17T09:54:38.142Z,31.57
2022-08-17T09:57:05.722Z,31.62
2022-08-17T09:59:38.159Z,31.82
2022-08-17T10:01:56.292Z,32.01
2022-08-17T10:04:29.539Z,32.54
2022-08-17T10:06:41.136Z,32.55
2022-08-17T10:08:52.570Z,32.58
2022-08-17T10:11:48.240Z,32.58
2022-08-17T10:14:37.860Z,32.00
2022-08-17T10:16:59.108Z,32.19
2022-08-17T10:19:31.830Z,32.18
2022-08-17T10:22:01.564Z,32.45
2022-08-17T10:25:21.661Z,32.45
2022-08-17T10:27:11.792Z,33.03
2022-08-17T10:29:22.878Z,33.30
2022-08-17T10:31:35.493Z,33.26
2022-08-17T10:34:22.960Z,33.59
2022-08-17T10:36:54.736Z,33.50
2022-08-17T10:39:34.731Z,33.70
2022-08-17T10:41:57.941Z,33.91
2022-08-17T10:44:38.660Z,33.69
2022-08-17T10:46:52.272Z,33.49
2022-08-17T10:49:25.259Z,33.92
2022-08-17T10:51:37.858Z,33.98
2022-08-17T10:53:50.708Z,34.32
2022-08-17T10:56:21.772Z,34.56
2022-08-17T10:58:24.734Z,34.51
2022-08-17T11:00:42.469Z,34.81
2022-08-17T11:02:50.213Z,34.70
2022-08-17T11:04:58.758Z,34.72
2022-08-17T11:07:15.999Z,34.43
2022-08-17T11:09:29.268Z,35.00
2022-08-17T11:11:35.857Z,35.24
2022-08-17T11:13:59.853Z,35.32
2022-08-17T11:16:14.611Z,35.77
2022-08-17T11:18:31.954Z,35.69
2022-08-17T11:21:06.263Z,36.07
2022-08-17T11:23:40.009Z,36.14
2022-08-17T11:25:50.947Z,37.03
2022-08-17T11:28:06.748Z,38.35
2022-08-17T11:30:34.829Z,38.43
2022-08-17T11:32:52.935Z,38.80
2022-08-17T11:35:29.288Z,40.34
2022-08-17T11:38:03.038Z,41.58
2022-08-17T11:40:27.088Z,41.94
2022-08-17T11:42:37.536Z,43.12
2022-08-17T11:44:40.316Z,42.15
2022-08-17T11:47:01.166Z,40.17
2022-08-17T11:49:34.870Z,39.68
2022-08-17T11:52:01.632Z,38.92
2022-08-17T11:54:32.132Z,40.03
2022-08-17T11:56:53.644Z,39.12
2022-08-17T11:58:56.526Z,38.96
2022-08-17T12:01:00.899Z,40.60
2022-08-17T12:03:22.313Z,39.19
2022-08-17T12:05:32.294Z,38.46
2022-08-17T12:07:43.117Z,37.38
2022-08-17T12:09:49.389Z,39.33
2022-08-17T12:12:14.617Z,42.17
2022-08-17T12:14:32.273Z,44.33
2022-08-17T12:16:45.219Z,45.02
2022-08-17T12:19:02.491Z,42.91
2022-08-17T12:21:07.367Z,40.45
2022-08-17T12:23:17.237Z,39.49
2022-08-17T12:25:24.195Z,40.60
2022-08-17T12:28:04.363Z,40.39
2022-08-17T12:29:56.145Z,39.90
2022-08-17T12:32:02.222Z,40.20
2022-08-17T12:34:05.978Z,42.63
2022-08-17T12:36:14.824Z,44.98
2022-08-17T12:38:28.126Z,45.23
2022-08-17T12:40:35.541Z,45.93
2022-08-17T12:42:40.393Z,45.38
2022-08-17T12:44:46.278Z,44.78
2022-08-17T12:47:09.686Z,45.72
2022-08-17T12:49:24.632Z,43.63
2022-08-17T12:51:29.301Z,44.28
2022-08-17T12:53:35.213Z,45.56
2022-08-17T12:55:38.942Z,44.32
2022-08-17T12:58:14.057Z,43.55
2022-08-17T13:00:21.904Z,42.71
2022-08-17T13:02:30.259Z,41.94
2022-08-17T13:04:32.682Z,41.84
2022-08-17T13:06:37.283Z,40.96
2022-08-17T13:08:48.115Z,40.30
2022-08-17T13:11:04.048Z,40.80
2022-08-17T13:13:26.091Z,39.77
2022-08-17T13:15:44.356Z,39.39
2022-08-17T13:17:56.795Z,39.84
2022-08-17T13:19:59.209Z,38.89
2022-08-17T13:22:04.176Z,38.30
2022-08-17T13:24:17.919Z,37.62
2022-08-17T13:26:37.453Z,38.06
2022-08-17T13:28:48.397Z,38.65
2022-08-17T13:31:13.841Z,38.21
2022-08-17T13:33:43.267Z,37.79
2022-08-17T13:35:50.279Z,37.86
2022-08-17T13:38:03.698Z,37.76
2022-08-17T13:40:08.974Z,37.12
2022-08-17T13:42:30.147Z,36.65
2022-08-17T13:44:37.306Z,36.74
2022-08-17T13:46:39.616Z,36.85
2022-08-17T13:48:42.200Z,36.57
2022-08-17T13:51:04.004Z,36.57
2022-08-17T13:53:25.559Z,36.91
2022-08-17T13:55:31.259Z,37.79
2022-08-17T13:57:35.272Z,38.00
2022-08-17T13:59:54.240Z,38.21
2022-08-17T14:01:59.021Z,37.98
2022-08-17T14:04:14.211Z,38.26
2022-08-17T14:06:23.681Z,38.18
2022-08-17T14:08:38.716Z,38.14
2022-08-17T14:10:41.403Z,38.73
2022-08-17T14:12:45.300Z,38.63
2022-08-17T14:14:49.641Z,38.92
2022-08-17T14:16:53.343Z,39.20
2022-08-17T14:18:57.203Z,38.62
2022-08-17T14:20:59.997Z,37.89
2022-08-17T14:23:02.579Z,38.12
2022-08-17T14:25:06.311Z,38.04
2022-08-17T14:27:12.831Z,37.89
2022-08-17T14:29:15.740Z,37.91
2022-08-17T14:31:19.280Z,37.67
2022-08-17T14:33:22.770Z,37.49
2022-08-17T14:35:27.513Z,37.48
2022-08-17T14:37:30.382Z,37.78
2022-08-17T14:39:32.952Z,37.68
2022-08-17T14:41:36.085Z,37.49
2022-08-17T14:43:39.886Z,37.89
2022-08-17T14:45:42.987Z,37.96
2022-08-17T14:47:45.545Z,37.69
2022-08-17T14:49:48.756Z,38.36
2022-08-17T14:51:51.301Z,38.41
2022-08-17T14:53:53.866Z,38.34
2022-08-17T14:55:56.195Z,38.34
2022-08-17T14:57:58.713Z,37.95
2022-08-17T15:00:02.007Z,37.38
2022-08-17T15:02:04.801Z,37.19
2022-08-17T15:04:07.102Z,37.57
2022-08-17T15:06:09.703Z,37.80
2022-08-17T15:08:12.567Z,37.89
2022-08-17T15:10:16.385Z,38.36
2022-08-17T15:12:22.962Z,38.22
2022-08-17T15:14:25.577Z,38.19
2022-08-17T15:16:27.888Z,37.59
2022-08-17T15:18:31.209Z,37.15
2022-08-17T15:20:34.200Z,36.85
2022-08-17T15:22:37.009Z,37.56
2022-08-17T15:24:39.713Z,37.46
2022-08-17T15:26:42.051Z,37.58
2022-08-17T15:28:44.336Z,37.83
2022-08-17T15:30:54.908Z,37.89
2022-08-17T15:32:59.463Z,37.79
2022-08-17T15:35:05.171Z,37.06
2022-08-17T15:37:07.762Z,36.71
2022-08-17T15:39:10.084Z,36.83
2022-08-17T15:41:15.527Z,36.92
2022-08-17T15:43:27.400Z,37.51
2022-08-17T15:45:30.816Z,37.98
2022-08-17T15:47:33.175Z,37.97
2022-08-17T15:49:39.389Z,37.99
2022-08-17T15:51:41.810Z,37.74
2022-08-17T15:53:48.453Z,37.53
2022-08-17T15:55:50.977Z,37.25
2022-08-17T15:57:54.549Z,36.62
2022-08-17T15:59:58.724Z,36.73
2022-08-17T16:03:14.041Z,37.07
2022-08-17T16:04:30.167Z,37.03
2022-08-17T16:06:33.638Z,36.56
2022-08-17T16:08:37.240Z,36.47
2022-08-17T16:11:13.792Z,36.33
2022-08-17T16:13:17.994Z,36.59
2022-08-17T16:15:21.304Z,36.15
2022-08-17T16:17:39.305Z,35.63
2022-08-17T16:19:42.931Z,35.96
2022-08-17T16:21:45.204Z,36.00
2022-08-17T16:23:49.476Z,35.78
2022-08-17T16:25:53.442Z,35.80
2022-08-17T16:27:57.067Z,35.64
2022-08-17T16:29:59.688Z,35.59
2022-08-17T16:32:14.884Z,35.30
2022-08-17T16:34:18.940Z,35.15
2022-08-17T16:36:23.280Z,34.99
2022-08-17T16:38:25.787Z,34.93
2022-08-17T16:40:31.256Z,35.41
2022-08-17T16:42:39.689Z,35.26
2022-08-17T16:44:42.020Z,35.34
2022-08-17T16:46:45.931Z,35.37
2022-08-17T16:48:48.676Z,35.95
2022-08-17T16:51:02.985Z,35.64
2022-08-17T16:53:17.118Z,35.73
2022-08-17T16:55:22.363Z,35.62
2022-08-17T16:57:24.899Z,35.40
2022-08-17T16:59:30.243Z,35.65
2022-08-17T17:01:34.486Z,35.51
2022-08-17T17:03:40.158Z,35.23
2022-08-17T17:05:53.056Z,35.44
2022-08-17T17:08:03.474Z,35.31
2022-08-17T17:10:12.699Z,35.09
2022-08-17T17:12:19.291Z,35.04
2022-08-17T17:14:45.134Z,35.16
2022-08-17T17:17:07.030Z,34.85
2022-08-17T17:19:12.420Z,34.47
2022-08-17T17:21:23.000Z,34.40
2022-08-17T17:23:30.788Z,34.46
2022-08-17T17:25:45.329Z,34.47
2022-08-17T17:28:05.281Z,34.77
2022-08-17T17:30:13.874Z,34.70
2022-08-17T17:32:28.339Z,34.62
2022-08-17T17:34:34.520Z,34.82
2022-08-17T17:36:42.470Z,34.83
2022-08-17T17:38:50.056Z,34.60
2022-08-17T17:41:02.922Z,34.52
2022-08-17T17:43:34.869Z,34.27
2022-08-17T17:45:35.872Z,34.03
2022-08-17T17:47:38.456Z,34.16
2022-08-17T17:49:44.745Z,34.12
2022-08-17T17:52:05.884Z,33.82
2022-08-17T17:54:36.951Z,33.81
2022-08-17T17:57:07.041Z,33.90
2022-08-17T17:59:19.617Z,33.91
2022-08-17T18:01:41.840Z,33.87
2022-08-17T18:03:51.760Z,33.72
2022-08-17T18:06:12.729Z,33.53
2022-08-17T18:08:47.020Z,33.52
2022-08-17T18:11:06.654Z,33.51
2022-08-17T18:13:26.679Z,33.27
2022-08-17T18:15:37.090Z,33.15
2022-08-17T18:17:39.610Z,33.26
2022-08-17T18:19:41.911Z,33.25
2022-08-17T18:21:49.343Z,33.30
2022-08-17T18:23:54.608Z,33.35
2022-08-17T18:25:58.805Z,33.36
2022-08-17T18:28:01.266Z,32.87
2022-08-17T18:30:27.446Z,32.83
2022-08-17T18:32:36.629Z,32.82
2022-08-17T18:34:48.554Z,33.09
2022-08-17T18:36:53.026Z,33.17
2022-08-17T18:39:09.909Z,32.92
2022-08-17T18:41:23.802Z,32.93
2022-08-17T18:43:44.147Z,32.65
2022-08-17T18:46:15.915Z,32.67
2022-08-17T18:48:36.777Z,32.47
2022-08-17T18:50:41.484Z,32.65
2022-08-17T18:52:48.258Z,32.52
2022-08-17T18:55:05.940Z,32.21
2022-08-17T18:57:11.759Z,32.18
2022-08-17T18:59:22.040Z,32.59
2022-08-17T19:01:41.957Z,32.31
2022-08-17T19:03:47.299Z,31.99
2022-08-17T19:05:56.059Z,32.03
2022-08-17T19:08:35.307Z,31.88
2022-08-17T19:10:46.438Z,31.66
2022-08-17T19:13:14.123Z,31.44
2022-08-17T19:15:39.914Z,31.11
2022-08-17T19:17:53.379Z,30.89
2022-08-17T19:20:07.448Z,30.97
2022-08-17T19:22:28.505Z,30.72
2022-08-17T19:24:34.430Z,30.67
2022-08-17T19:26:54.533Z,30.50
2022-08-17T19:29:06.936Z,30.62
2022-08-17T19:31:19.297Z,30.70
2022-08-17T19:33:22.168Z,30.75
2022-08-17T19:35:30.232Z,30.83
2022-08-17T19:37:39.311Z,30.68
2022-08-17T19:40:10.257Z,30.53
2022-08-17T19:42:42.440Z,30.58
2022-08-17T19:44:58.665Z,30.55
2022-08-17T19:47:12.930Z,30.52
2022-08-17T19:49:22.730Z,30.72
2022-08-17T19:51:52.056Z,30.65
2022-08-17T19:54:06.315Z,30.47
2022-08-17T19:56:22.777Z,30.32
2022-08-17T19:58:53.879Z,30.06
2022-08-17T20:00:56.635Z,30.24
2022-08-17T20:03:16.540Z,30.08
2022-08-17T20:06:11.496Z,30.22
2022-08-17T20:08:20.475Z,30.35
2022-08-17T20:10:37.570Z,30.01
2022-08-17T20:12:44.616Z,29.81
2022-08-17T20:14:57.494Z,29.61
2022-08-17T20:17:02.760Z,29.69
2022-08-17T20:19:12.291Z,29.64
2022-08-17T20:21:26.845Z,29.67
2022-08-17T20:23:40.192Z,29.51
2022-08-17T20:26:08.491Z,30.16
2022-08-17T20:28:17.459Z,30.28
2022-08-17T20:30:23.262Z,30.14
2022-08-17T20:32:36.822Z,30.23
2022-08-17T20:34:40.071Z,30.25
2022-08-17T20:36:57.441Z,30.25
2022-08-17T20:38:59.911Z,30.46
2022-08-17T20:41:02.540Z,30.36
2022-08-17T20:43:35.694Z,30.14
2022-08-17T20:45:41.067Z,29.97
2022-08-17T20:48:07.778Z,29.88
2022-08-17T20:50:32.506Z,29.99
2022-08-17T20:52:46.158Z,30.42
2022-08-17T20:54:52.412Z,30.08
2022-08-17T20:56:57.823Z,30.39
2022-08-17T20:59:02.408Z,30.29
2022-08-17T21:01:16.122Z,30.20
2022-08-17T21:03:25.353Z,30.17
2022-08-17T21:05:59.814Z,29.95
2022-08-17T21:08:17.521Z,29.68
2022-08-17T21:10:25.937Z,29.47
2022-08-17T21:12:48.051Z,29.50
2022-08-17T21:15:00.498Z,29.57
2022-08-17T21:17:17.678Z,29.26
2022-08-17T21:19:49.003Z,29.04
2022-08-17T21:22:03.266Z,28.89
2022-08-17T21:24:31.508Z,28.84
2022-08-17T21:27:01.585Z,28.80
2022-08-17T21:29:40.477Z,28.79
2022-08-17T21:32:03.179Z,28.78
2022-08-17T21:34:14.926Z,28.56
2022-08-17T21:36:26.209Z,29.08
2022-08-17T21:38:40.689Z,29.15
2022-08-17T21:40:46.979Z,29.58
2022-08-17T21:43:15.882Z,29.76
2022-08-17T21:45:24.348Z,29.72
2022-08-17T21:47:29.972Z,29.50
2022-08-17T21:49:37.644Z,28.88
2022-08-17T21:51:45.953Z,28.86
2022-08-17T21:53:52.803Z,28.76
2022-08-17T21:55:55.439Z,28.98
2022-08-17T21:58:14.086Z,28.99
2022-08-17T22:00:25.339Z,28.70
2022-08-17T22:02:36.181Z,28.74
2022-08-17T22:04:40.948Z,28.44
2022-08-17T22:06:52.610Z,28.53
2022-08-17T22:09:12.026Z,28.84
2022-08-17T22:11:14.657Z,28.69
2022-08-17T22:13:23.242Z,28.80
2022-08-17T22:15:25.876Z,29.03
2022-08-17T22:17:35.412Z,28.69
2022-08-17T22:19:38.460Z,28.77
2022-08-17T22:21:41.046Z,28.20
2022-08-17T22:24:04.376Z,28.22
2022-08-17T22:26:12.615Z,28.35
2022-08-17T22:28:36.765Z,28.05
2022-08-17T22:30:58.147Z,28.01
2022-08-17T22:33:21.398Z,27.95
2022-08-17T22:35:38.410Z,28.44
2022-08-17T22:37:40.676Z,28.15
2022-08-17T22:39:43.077Z,27.93
2022-08-17T22:42:00.277Z,28.14
2022-08-17T22:44:17.668Z,27.96
2022-08-17T22:46:23.601Z,28.02
2022-08-17T22:48:29.389Z,27.99
2022-08-17T22:50:33.087Z,27.98
2022-08-17T22:53:01.304Z,27.92
2022-08-17T22:55:35.828Z,28.03
2022-08-17T22:58:04.984Z,27.72
2022-08-17T23:00:29.524Z,27.52
2022-08-17T23:02:34.832Z,27.48
2022-08-17T23:04:40.764Z,27.34
2022-08-17T23:06:43.288Z,27.51
2022-08-17T23:08:54.898Z,27.32
2022-08-17T23:11:00.370Z,26.95
2022-08-17T23:13:03.252Z,27.17
2022-08-17T23:15:11.771Z,27.60
2022-08-17T23:17:14.412Z,27.62
2022-08-17T23:19:20.491Z,27.47
2022-08-17T23:21:27.356Z,27.77
2022-08-17T23:23:29.823Z,28.06
2022-08-17T23:25:34.247Z,27.84
2022-08-17T23:27:36.893Z,27.84
2022-08-17T23:29:42.139Z,27.58
2022-08-17T23:31:44.806Z,27.46
2022-08-17T23:33:47.723Z,27.66
2022-08-17T23:35:49.982Z,27.66
2022-08-17T23:37:52.891Z,27.63
2022-08-17T23:39:55.345Z,27.74
2022-08-17T23:41:59.163Z,27.54
2022-08-17T23:46:24.502Z,27.88
2022-08-17T23:48:35.416Z,27.45
2022-08-17T23:50:39.132Z,27.60
2022-08-17T23:52:43.720Z,27.42
2022-08-17T23:54:47.917Z,27.35
